Time;durP1;ratioP1;P1;durP2;ratioP2;P2;SDS_P1;SDS_P2;PMS_P1;PMS_P2;Temp;Humidity;BMP_temperature;BMP_pressure;BME280_temperature;BME280_humidity;BME280_pressure;Samples;Min_cycle;Max_cycle;Signal;HPM_P1;HPM_P2
2022/01/29 00:01:09;;;;;;;35.08;19.02;;;;;;;3.44;49.52;98392.41;3362369;29;20071;-77
2022/01/29 00:02:49;;;;;;;29.70;15.02;;;;;;;3.44;49.23;98389.75;3348836;29;20541;-78
2022/01/29 00:04:30;;;;;;;31.38;16.52;;;;;;;3.43;49.68;98387.28;3359709;29;20056;-76
2022/01/29 00:06:11;;;;;;;28.25;16.17;;;;;;;3.43;49.61;98387.28;3361739;29;20041;-78
2022/01/29 00:07:51;;;;;;;26.67;15.73;;;;;;;3.42;49.64;98391.75;3348732;29;20162;-79
2022/01/29 00:09:32;;;;;;;31.88;18.67;;;;;;;3.44;49.51;98384.50;3356690;29;20101;-78
2022/01/29 00:11:15;;;;;;;34.17;17.70;;;;;;;3.43;49.45;98380.22;3361939;29;20045;-76
2022/01/29 00:12:56;;;;;;;30.55;17.40;;;;;;;3.41;49.39;98384.84;3362439;29;20037;-80
2022/01/29 00:14:37;;;;;;;29.40;15.65;;;;;;;3.38;49.40;98379.97;3361996;29;20119;-78
2022/01/29 00:16:18;;;;;;;33.17;17.05;;;;;;;3.34;49.41;98383.94;3361371;29;20045;-78
2022/01/29 00:17:58;;;;;;;31.05;18.00;;;;;;;3.31;49.18;98383.50;3362335;29;20082;-76
2022/01/29 00:19:40;;;;;;;26.15;15.88;;;;;;;3.28;49.16;98380.22;3361844;29;20045;-81
2022/01/29 00:21:21;;;;;;;31.30;16.92;;;;;;;3.26;49.21;98378.75;3362450;29;20505;-75
2022/01/29 00:23:02;;;;;;;32.88;17.00;;;;;;;3.22;49.11;98373.03;3362532;29;20064;-80
2022/01/29 00:24:43;;;;;;;30.98;15.75;;;;;;;3.21;49.19;98368.75;3348296;29;20537;-79
2022/01/29 00:26:26;;;;;;;31.75;17.35;;;;;;;3.22;49.32;98369.56;3362220;29;20053;-80
2022/01/29 00:28:07;;;;;;;28.42;14.77;;;;;;;3.22;49.27;98370.38;3364109;29;20087;-81
2022/01/29 00:29:48;;;;;;;28.43;16.00;;;;;;;3.26;49.58;98373.50;3362210;29;20389;-81
2022/01/29 00:31:31;;;;;;;29.67;15.45;;;;;;;3.28;49.33;98368.88;3361355;29;20140;-79
2022/01/29 00:33:13;;;;;;;31.83;18.35;;;;;;;3.28;49.47;98384.69;3365127;29;20047;-81
2022/01/29 00:34:53;;;;;;;29.20;16.00;;;;;;;3.28;49.39;98371.50;3365012;29;20041;-80
2022/01/29 00:36:34;;;;;;;31.85;17.50;;;;;;;3.26;49.34;98378.75;3365226;29;20558;-79
2022/01/29 00:38:15;;;;;;;31.40;17.45;;;;;;;3.23;49.16;98379.13;3365073;29;20047;-80
2022/01/29 00:39:55;;;;;;;34.13;18.65;;;;;;;3.19;49.22;98383.91;3364746;29;20101;-79
2022/01/29 00:41:36;;;;;;;32.83;16.27;;;;;;;3.17;49.45;98382.47;3364702;29;20057;-78
2022/01/29 00:43:17;;;;;;;35.38;18.80;;;;;;;3.17;49.21;98387.72;3351282;29;20046;-78
2022/01/29 00:44:58;;;;;;;27.60;14.80;;;;;;;3.19;49.37;98386.56;3366818;29;20512;-80
2022/01/29 00:46:41;;;;;;;32.40;17.23;;;;;;;3.20;49.26;98384.72;3364924;29;20113;-79
2022/01/29 00:48:21;;;;;;;30.70;16.92;;;;;;;3.19;49.21;98383.09;3366810;29;20088;-79
2022/01/29 00:50:02;;;;;;;29.27;17.60;;;;;;;3.22;49.33;98390.63;3364803;29;20424;-76
2022/01/29 00:51:43;;;;;;;30.88;17.00;;;;;;;3.22;49.30;98391.44;3365203;29;20500;-80
2022/01/29 00:53:24;;;;;;;33.13;16.88;;;;;;;3.22;49.17;98388.81;3363664;29;20044;-76
2022/01/29 00:55:09;;;;;;;29.45;15.95;;;;;;;3.22;49.25;98395.91;3364806;29;20504;-77
2022/01/29 00:56:50;;;;;;;32.67;17.65;;;;;;;3.21;48.98;98391.66;3364725;29;20081;-77
2022/01/29 00:58:30;;;;;;;32.67;16.95;;;;;;;3.19;48.96;98386.56;3364493;29;20056;-78
2022/01/29 01:00:13;;;;;;;32.65;17.27;;;;;;;3.18;48.97;98384.13;3363753;29;20508;-79
2022/01/29 01:01:54;;;;;;;27.98;15.23;;;;;;;3.18;48.98;98384.13;3364491;29;20068;-78
2022/01/29 01:03:35;;;;;;;32.67;16.70;;;;;;;3.19;49.13;98385.75;3363729;29;20044;-78
2022/01/29 01:05:15;;;;;;;30.23;15.65;;;;;;;3.22;48.95;98388.00;3360824;29;20101;-77
2022/01/29 01:06:56;;;;;;;28.77;15.70;;;;;;;3.23;49.00;98384.41;3364619;29;20457;-82
2022/01/29 01:08:37;;;;;;;29.65;15.45;;;;;;;3.22;49.11;98393.28;3364593;29;20041;-79
2022/01/29 01:10:18;;;;;;;30.35;16.98;;;;;;;3.19;48.89;98385.75;3363697;29;20075;-79
2022/01/29 01:11:58;;;;;;;34.00;17.90;;;;;;;3.20;48.99;98384.72;3360927;29;20098;-76
2022/01/29 01:13:39;;;;;;;34.67;18.05;;;;;;;3.21;48.92;98397.72;3364220;29;20501;-79
2022/01/29 01:15:20;;;;;;;27.88;16.42;;;;;;;3.23;48.88;98392.28;3364687;29;20048;-80
2022/01/29 01:17:00;;;;;;;29.60;16.35;;;;;;;3.25;48.86;98385.00;3364360;29;20044;-78
2022/01/29 01:18:41;;;;;;;35.38;16.70;;;;;;;3.28;49.21;98379.41;3364661;29;20049;-76
2022/01/29 01:20:22;;;;;;;31.40;15.90;;;;;;;3.30;49.08;98381.84;3363767;29;20049;-78
2022/01/29 01:22:03;;;;;;;29.20;16.88;;;;;;;3.31;49.06;98388.75;3364672;29;20049;-80
2022/01/29 01:23:44;;;;;;;34.70;19.05;;;;;;;3.32;48.95;98387.75;3364176;29;20067;-76
2022/01/29 01:25:25;;;;;;;31.50;17.33;;;;;;;3.28;48.75;98379.41;3364416;29;20045;-78
2022/01/29 01:27:05;;;;;;;28.13;16.27;;;;;;;3.25;48.86;98377.09;3364016;29;20132;-75
2022/01/29 01:28:46;;;;;;;32.10;16.70;;;;;;;3.26;49.00;98382.22;3364208;29;20049;-78
2022/01/29 01:30:27;;;;;;;33.00;17.65;;;;;;;3.26;48.93;98381.41;3364101;29;20041;-79
2022/01/29 01:32:11;;;;;;;27.45;16.60;;;;;;;3.27;48.80;98381.19;3364350;29;20056;-76
2022/01/29 01:33:51;;;;;;;34.35;16.88;;;;;;;3.26;48.88;98376.13;3364241;29;20057;-75
2022/01/29 01:35:38;;;;;;;32.42;17.15;;;;;;;3.25;49.10;98375.31;3364421;29;20071;-73
2022/01/29 01:37:37;;;;;;;33.28;18.27;;;;;;;3.24;48.93;98378.13;3353177;29;20045;-80
2022/01/29 01:39:21;;;;;;;28.73;16.17;;;;;;;3.24;48.93;98375.50;3366342;29;20076;-78
2022/01/29 01:41:07;;;;;;;29.40;16.52;;;;;;;3.21;48.99;98371.41;3366311;29;20555;-77
2022/01/29 01:42:47;;;;;;;32.08;17.20;;;;;;;3.20;48.72;98377.66;3364935;29;20547;-77
2022/01/29 01:44:37;;;;;;;30.30;16.88;;;;;;;3.19;48.87;98375.22;3363858;29;20041;-77
2022/01/29 01:46:18;;;;;;;29.17;16.60;;;;;;;3.17;48.73;98367.47;3364235;29;20045;-75
2022/01/29 01:47:59;;;;;;;31.33;17.13;;;;;;;3.12;48.92;98361.13;3363865;29;20051;-79
2022/01/29 01:49:39;;;;;;;30.00;16.52;;;;;;;3.16;48.76;98370.31;3363952;29;20476;-77
2022/01/29 01:51:21;;;;;;;30.63;16.63;;;;;;;3.17;49.08;98377.19;3363817;29;20436;-76
2022/01/29 01:53:03;;;;;;;29.42;16.30;;;;;;;3.15;48.97;98380.03;3364024;29;20049;-78
2022/01/29 01:54:43;;;;;;;;;;;;;;;3.28;48.89;98376.78;3364404;29;20052;-78
2022/01/29 01:56:24;;;;;;;27.30;14.55;;;;;;;3.21;48.97;98384.56;3363679;29;19926;-78
2022/01/29 01:58:05;;;;;;;28.17;14.90;;;;;;;3.19;48.89;98377.84;3363793;29;20552;-77
2022/01/29 01:59:45;;;;;;;30.67;15.82;;;;;;;3.19;48.90;98389.19;3364004;29;20097;-76
2022/01/29 02:01:27;;;;;;;30.23;15.77;;;;;;;3.18;49.02;98382.28;3363768;29;20531;-79
2022/01/29 02:03:09;;;;;;;30.30;17.23;;;;;;;3.17;48.97;98372.75;3363997;29;20052;-79
2022/01/29 02:04:49;;;;;;;26.85;14.95;;;;;;;3.18;48.81;98373.59;3363100;29;20049;-78
2022/01/29 02:06:30;;;;;;;28.50;15.80;;;;;;;3.17;49.09;98385.91;3363812;29;20064;-80
2022/01/29 02:08:13;;;;;;;32.05;15.93;;;;;;;3.18;48.86;98373.59;3363573;29;20041;-76
2022/01/29 02:09:54;;;;;;;30.92;15.68;;;;;;;3.17;49.05;98382.47;3363572;29;20048;-78
2022/01/29 02:11:38;;;;;;;33.47;16.35;;;;;;;3.18;48.99;98384.13;3363645;29;20091;-78
2022/01/29 02:13:19;;;;;;;29.77;17.00;;;;;;;3.16;48.92;98384.28;3363277;29;20096;-79
2022/01/29 02:15:04;;;;;;;27.70;16.15;;;;;;;3.17;49.10;98385.09;3362511;29;20041;-80
2022/01/29 02:16:45;;;;;;;34.08;17.80;;;;;;;3.16;49.00;98386.09;3363337;29;20174;-79
2022/01/29 02:18:26;;;;;;;50.90;17.05;;;;;;;3.16;48.97;98386.91;3363325;29;20049;-77
2022/01/29 02:20:07;;;;;;;29.92;16.50;;;;;;;3.15;49.17;98387.09;3363156;29;20197;-78
2022/01/29 02:21:48;;;;;;;32.03;16.02;;;;;;;3.13;49.20;98387.28;3363594;29;20060;-78
2022/01/29 02:23:29;;;;;;;27.75;17.02;;;;;;;3.15;49.03;98384.44;3362005;29;20465;-78
2022/01/29 02:25:29;;;;;;;27.60;15.95;;;;;;;3.18;49.27;98384.13;3363135;29;20089;-78
2022/01/29 02:27:10;;;;;;;34.40;16.15;;;;;;;3.14;49.32;98382.81;3363382;29;20073;-81
2022/01/29 02:28:50;;;;;;;32.35;16.35;;;;;;;3.10;49.22;98374.47;3363274;29;20147;-79
2022/01/29 02:30:33;;;;;;;35.38;18.55;;;;;;;3.12;49.11;98384.81;3363214;29;20041;-77
2022/01/29 02:32:14;;;;;;;27.60;15.88;;;;;;;3.11;49.24;98389.25;3363437;29;20045;-77
2022/01/29 02:33:55;;;;;;;31.92;17.45;;;;;;;3.12;49.29;98379.53;3362156;29;20877;-79
2022/01/29 02:35:45;;;;;;;27.58;16.20;;;;;;;3.13;49.09;98378.56;3363100;29;20049;-74
2022/01/29 02:37:25;;;;;;;30.95;16.83;;;;;;;3.15;49.06;98384.44;3362055;29;20041;-78
2022/01/29 02:39:06;;;;;;;29.52;17.13;;;;;;;3.15;49.29;98379.19;3363194;29;20053;-75
2022/01/29 02:40:50;;;;;;;30.95;15.98;;;;;;;3.17;49.26;98374.56;3362097;29;20053;-76
2022/01/29 02:42:31;;;;;;;35.55;16.20;;;;;;;3.18;49.11;98373.59;3362075;29;20125;-79
2022/01/29 02:44:17;;;;;;;30.40;15.68;;;;;;;3.18;49.46;98381.47;3362664;29;20068;-81
2022/01/29 02:46:06;;;;;;;31.10;16.45;;;;;;;3.17;49.27;98374.56;3363243;29;20045;-81
2022/01/29 02:47:46;;;;;;;32.50;16.85;;;;;;;3.16;49.09;98379.00;3362206;29;20413;-79
2022/01/29 02:49:27;;;;;;;32.40;16.50;;;;;;;3.18;49.20;98381.47;3362097;29;20064;-78
2022/01/29 02:51:08;;;;;;;32.92;17.10;;;;;;;3.17;49.03;98385.09;3359678;29;20560;-78
2022/01/29 02:52:48;;;;;;;29.60;15.80;;;;;;;3.17;49.20;98382.47;3362693;29;20071;-77
2022/01/29 02:54:30;;;;;;;29.17;18.00;;;;;;;3.18;49.21;98389.38;3362974;29;20044;-76
2022/01/29 02:56:10;;;;;;;26.92;16.95;;;;;;;3.18;49.05;98389.38;3363253;29;20044;-76
2022/01/29 02:57:51;;;;;;;30.30;16.55;;;;;;;3.18;48.95;98384.13;3363260;29;20424;-79
2022/01/29 02:59:32;;;;;;;35.58;17.63;;;;;;;3.18;48.92;98389.38;3363334;29;20061;-76
2022/01/29 03:01:13;;;;;;;29.77;16.73;;;;;;;3.16;48.93;98380.84;3362069;29;20460;-79
2022/01/29 03:02:54;;;;;;;32.83;18.23;;;;;;;3.19;48.98;98383.09;3362956;29;20580;-79
2022/01/29 03:04:34;;;;;;;32.10;17.73;;;;;;;3.20;49.00;98376.81;3361814;29;20112;-79
2022/01/29 03:06:15;;;;;;;33.70;17.77;;;;;;;3.21;49.21;98379.28;3362410;29;20041;-80
2022/01/29 03:07:56;;;;;;;26.80;15.90;;;;;;;3.22;49.39;98382.75;3362476;29;20036;-76
2022/01/29 03:09:36;;;;;;;33.95;16.98;;;;;;;3.22;49.00;98388.81;3363009;29;20393;-78
2022/01/29 03:11:19;;;;;;;32.42;18.45;;;;;;;3.24;49.20;98381.56;3363847;29;20045;-79
2022/01/29 03:13:00;;;;;;;26.98;14.85;;;;;;;3.22;49.26;98388.00;3362773;29;20104;-78
2022/01/29 03:14:41;;;;;;;29.02;16.60;;;;;;;3.25;49.14;98385.84;3364143;29;20045;-75
2022/01/29 03:16:21;;;;;;;34.72;16.98;;;;;;;3.22;49.29;98380.91;3366202;29;20131;-77
2022/01/29 03:18:02;;;;;;;31.15;17.50;;;;;;;3.23;49.17;98387.84;3363126;29;20588;-82
2022/01/29 03:19:43;;;;;;;30.02;16.98;;;;;;;3.23;49.18;98382.56;3362961;29;20049;-77
2022/01/29 03:21:23;;;;;;;31.80;16.50;;;;;;;3.23;48.99;98390.47;3361765;29;20094;-76
2022/01/29 03:23:04;;;;;;;33.25;15.80;;;;;;;3.28;49.14;98397.84;3362394;29;20045;-77
2022/01/29 03:24:45;;;;;;;34.55;16.73;;;;;;;3.28;49.38;98392.56;3362807;29;20100;-79
2022/01/29 03:26:25;;;;;;;29.90;16.50;;;;;;;3.28;49.18;98392.56;3361760;29;20041;-81
2022/01/29 03:28:06;;;;;;;31.77;16.42;;;;;;;3.29;49.28;98394.19;3362287;29;20052;-78
2022/01/29 03:29:47;;;;;;;30.70;16.33;;;;;;;3.28;49.33;98393.38;3363098;29;20131;-79
2022/01/29 03:31:28;;;;;;;26.88;16.25;;;;;;;3.30;49.26;98395.81;3361571;29;20436;-77
2022/01/29 03:33:09;;;;;;;29.45;16.38;;;;;;;3.30;49.46;98387.09;3362199;29;20416;-78
2022/01/29 03:34:50;;;;;;;34.47;17.90;;;;;;;3.31;49.46;98394.84;3363058;29;20136;-77
2022/01/29 03:36:31;;;;;;;36.63;17.40;;;;;;;3.32;49.43;98400.91;3361516;29;20049;-75
2022/01/29 03:38:11;;;;;;;30.17;16.05;;;;;;;3.33;49.36;98394.63;3362628;29;20131;-76
2022/01/29 03:39:57;;;;;;;30.42;16.67;;;;;;;3.32;49.52;98393.84;3362513;29;20137;-78
2022/01/29 03:41:38;;;;;;;32.38;16.98;;;;;;;3.33;49.59;98390.22;3362611;29;20037;-76
2022/01/29 03:43:34;;;;;;;31.25;16.73;;;;;;;3.34;49.54;98398.94;3362409;29;20181;-79
2022/01/29 03:45:19;;;;;;;29.30;16.98;;;;;;;3.35;49.38;98404.00;3362682;29;20432;-75
2022/01/29 03:47:00;;;;;;;32.67;16.70;;;;;;;3.34;49.39;98394.47;3361327;29;20076;-80
2022/01/29 03:48:40;;;;;;;28.02;15.95;;;;;;;3.35;49.36;98396.09;3362502;29;20056;-78
2022/01/29 03:50:21;;;;;;;31.33;16.63;;;;;;;3.34;49.34;98394.47;3363169;29;20049;-79
2022/01/29 03:52:02;;;;;;;28.60;16.88;;;;;;;3.33;49.57;98392.84;3362684;29;20041;-78
2022/01/29 03:53:42;;;;;;;29.08;17.05;;;;;;;3.34;49.47;98396.28;3362734;29;20087;-76
2022/01/29 03:55:23;;;;;;;29.05;16.63;;;;;;;3.35;49.16;98392.66;3362520;29;20136;-78
2022/01/29 03:57:04;;;;;;;32.30;17.17;;;;;;;3.35;49.37;98393.47;3362630;29;20053;-78
2022/01/29 03:58:45;;;;;;;29.60;15.90;;;;;;;3.33;49.13;98382.31;3362079;29;20056;-79
2022/01/29 04:00:25;;;;;;;35.88;17.10;;;;;;;3.36;49.44;98391.66;3361340;29;20045;-79
2022/01/29 04:02:06;;;;;;;32.08;18.10;;;;;;;3.35;49.53;98393.47;3365055;29;20479;-81
2022/01/29 04:03:48;;;;;;;32.40;16.73;;;;;;;3.38;49.46;98390.50;3364549;29;20048;-79
2022/01/29 04:05:29;;;;;;;30.75;15.57;;;;;;;3.40;49.24;98398.19;3365151;29;20191;-78
2022/01/29 04:07:11;;;;;;;32.38;16.55;;;;;;;3.38;49.25;98394.91;3365335;29;20104;-74
2022/01/29 04:08:52;;;;;;;32.10;17.55;;;;;;;3.39;49.22;98407.91;3364711;29;20123;-76
2022/01/29 04:10:33;;;;;;;29.67;16.77;;;;;;;3.39;49.45;98402.66;3365055;29;20342;-78
2022/01/29 04:12:14;;;;;;;30.17;16.65;;;;;;;3.37;49.31;98404.63;3363771;29;20053;-79
2022/01/29 04:13:55;;;;;;;27.88;17.33;;;;;;;3.38;49.13;98403.66;3361279;29;20047;-79
2022/01/29 04:15:36;;;;;;;34.70;17.20;;;;;;;3.39;49.27;98407.91;3368417;29;20517;-76
2022/01/29 04:17:16;;;;;;;36.58;18.10;;;;;;;3.37;49.07;98399.38;3369151;29;20457;-77
2022/01/29 04:18:57;;;;;;;30.13;17.90;;;;;;;3.40;49.39;98408.72;3365592;29;20128;-79
2022/01/29 04:20:38;;;;;;;36.88;18.08;;;;;;;3.39;49.24;98405.28;3371807;29;20045;-80
2022/01/29 04:22:18;;;;;;;35.08;16.42;;;;;;;3.40;49.17;98409.53;3378267;29;20051;-79
2022/01/29 04:23:59;;;;;;;34.97;17.85;;;;;;;3.39;49.09;98400.03;3378510;29;20068;-79
2022/01/29 04:25:40;;;;;;;34.95;18.55;;;;;;;3.37;49.48;98401.19;3379273;29;20036;-77
2022/01/29 04:27:30;;;;;;;30.45;16.80;;;;;;;3.42;49.39;98412.00;3376134;29;20169;-78
2022/01/29 04:29:11;;;;;;;31.80;17.48;;;;;;;3.42;49.37;98404.09;3372582;29;20074;-75
2022/01/29 04:30:57;;;;;;;30.27;16.73;;;;;;;3.43;49.67;98409.22;3377298;29;20048;-79
2022/01/29 04:34:19;;;;;;;26.35;15.48;;;;;;;3.41;49.70;98405.94;3379711;29;20041;-79
2022/01/29 04:36:03;;;;;;;31.70;16.63;;;;;;;3.40;49.46;98404.28;3379940;29;20124;-79
2022/01/29 04:37:44;;;;;;;32.03;18.42;;;;;;;3.41;49.65;98405.94;3379679;29;20053;-77
2022/01/29 04:39:24;;;;;;;34.05;16.85;;;;;;;3.41;49.41;98403.28;3379255;29;20138;-77
2022/01/29 04:41:06;;;;;;;31.33;16.35;;;;;;;3.41;49.60;98403.28;3376625;29;20049;-77
2022/01/29 04:42:47;;;;;;;35.60;17.33;;;;;;;3.43;49.61;98406.56;3367313;29;20041;-77
2022/01/29 04:44:28;;;;;;;34.17;17.45;;;;;;;3.40;49.49;98401.66;3364898;29;20049;-79
2022/01/29 04:46:08;;;;;;;34.25;18.02;;;;;;;3.42;49.60;98402.28;3364250;29;20088;-79
2022/01/29 04:47:49;;;;;;;33.15;17.90;;;;;;;3.40;49.45;98399.00;3364358;29;20097;-80
2022/01/29 04:49:30;;;;;;;33.22;18.65;;;;;;;3.40;49.42;98404.28;3364471;29;20048;-81
2022/01/29 04:51:10;;;;;;;30.75;17.35;;;;;;;3.37;49.32;98396.75;3364795;29;20093;-77
2022/01/29 04:52:51;;;;;;;30.40;17.52;;;;;;;3.40;49.54;98403.47;3363357;29;20097;-77
2022/01/29 04:54:33;;;;;;;33.70;16.65;;;;;;;3.37;49.45;98396.75;3364501;29;20056;-81
2022/01/29 04:56:14;;;;;;;31.98;17.15;;;;;;;3.37;49.50;98409.91;3364340;29;20060;-79
2022/01/29 04:57:55;;;;;;;36.05;17.30;;;;;;;3.38;49.18;98416.00;3364372;29;20081;-80
2022/01/29 04:59:35;;;;;;;31.52;17.35;;;;;;;3.36;49.36;98413.56;3363516;29;20105;-78
2022/01/29 05:01:16;;;;;;;31.15;16.63;;;;;;;3.36;49.48;98413.56;3364234;29;20147;-80
2022/01/29 05:03:09;;;;;;;34.80;16.98;;;;;;;3.35;49.49;98417.16;3363532;29;20514;-80
2022/01/29 05:04:50;;;;;;;32.28;17.58;;;;;;;3.35;49.24;98414.53;3363778;29;20489;-79
2022/01/29 05:06:30;;;;;;;33.88;17.35;;;;;;;3.36;49.17;98407.47;3364317;29;20043;-78
2022/01/29 05:08:14;;;;;;;37.88;18.00;;;;;;;3.36;49.34;98404.84;3364358;29;20091;-78
2022/01/29 05:09:55;;;;;;;30.83;16.23;;;;;;;3.38;49.53;98406.28;3364080;29;20439;-79
2022/01/29 05:11:35;;;;;;;34.65;17.70;;;;;;;3.42;49.33;98406.75;3363891;29;20049;-78
2022/01/29 05:13:21;;;;;;;32.78;16.60;;;;;;;3.41;49.45;98403.28;3363605;29;20052;-78
2022/01/29 05:26:52;;;;;;;32.03;16.85;;;;;;;3.49;49.15;98405.03;3364461;29;20037;-78
2022/01/29 05:28:32;;;;;;;35.20;18.58;;;;;;;3.50;49.48;98415.38;3364536;29;20481;-80
2022/01/29 05:30:13;;;;;;;30.02;16.33;;;;;;;3.49;49.29;98413.75;3363258;29;20041;-79
2022/01/29 05:31:54;;;;;;;30.42;16.90;;;;;;;3.47;49.33;98410.47;3363917;29;20072;-75
2022/01/29 05:33:34;;;;;;;35.67;18.60;;;;;;;3.47;49.34;98417.56;3363867;29;20040;-77
2022/01/29 05:35:15;;;;;;;31.60;17.30;;;;;;;3.45;49.46;98417.72;3364141;29;20048;-77
2022/01/29 05:36:56;;;;;;;34.25;19.33;;;;;;;3.46;49.31;98429.09;3363938;29;20119;-76
2022/01/29 05:38:36;;;;;;;33.90;18.80;;;;;;;3.47;49.37;98417.56;3363265;29;20045;-83
2022/01/29 05:40:18;;;;;;;31.85;18.40;;;;;;;3.47;49.25;98418.38;3360775;29;20036;-76
2022/01/29 05:41:59;;;;;;;31.27;16.90;;;;;;;3.48;49.40;98421.81;3364036;29;20470;-77
2022/01/29 05:43:40;;;;;;;29.55;17.08;;;;;;;3.48;49.21;98422.66;3363077;29;20041;-77
2022/01/29 05:45:20;;;;;;;32.78;18.90;;;;;;;3.48;49.27;98422.66;3363946;29;20056;-83
2022/01/29 05:47:02;;;;;;;31.42;17.13;;;;;;;3.48;49.01;98412.13;3364173;29;20071;-81
2022/01/29 05:48:43;;;;;;;35.47;17.27;;;;;;;3.48;49.20;98417.38;3364013;29;20079;-81
2022/01/29 05:50:24;;;;;;;34.03;18.73;;;;;;;3.47;49.25;98420.19;3364237;29;20515;-77
2022/01/29 05:52:05;;;;;;;38.22;18.33;;;;;;;3.50;49.20;98423.25;3364192;29;20111;-78
2022/01/29 05:53:45;;;;;;;35.20;19.85;;;;;;;3.49;49.29;98424.28;3362316;29;20052;-78
2022/01/29 05:55:27;;;;;;;44.53;19.95;;;;;;;3.48;49.15;98417.38;3360310;29;20170;-78
2022/01/29 05:57:09;;;;;;;37.22;19.13;;;;;;;3.49;48.89;98418.19;3364037;29;20045;-75
2022/01/29 05:58:49;;;;;;;;;;;;;;;3.60;48.92;98425.66;3364495;29;20060;-79
2022/01/29 06:00:30;;;;;;;34.05;17.63;;;;;;;3.55;48.65;98424.56;3363643;29;19916;-80
2022/01/29 06:02:11;;;;;;;32.05;17.63;;;;;;;3.53;48.97;98418.63;3363985;29;20429;-80
2022/01/29 06:03:52;;;;;;;31.35;16.98;;;;;;;3.53;49.12;98418.63;3362747;29;20132;-76
2022/01/29 06:05:32;;;;;;;36.05;17.63;;;;;;;3.53;48.93;98423.91;3363599;29;20405;-79
2022/01/29 06:07:13;;;;;;;35.42;18.88;;;;;;;3.53;48.97;98430.00;3363891;29;20068;-78
2022/01/29 06:08:54;;;;;;;35.85;19.10;;;;;;;3.55;49.15;98424.56;3363692;29;20077;-76
2022/01/29 06:10:35;;;;;;;32.58;18.20;;;;;;;3.55;49.07;98432.47;3363763;29;20417;-79
2022/01/29 06:12:16;;;;;;;35.58;17.77;;;;;;;3.56;49.02;98421.72;3362849;29;20096;-78
2022/01/29 06:13:57;;;;;;;34.10;19.20;;;;;;;3.58;49.07;98429.47;3362649;29;20127;-77
2022/01/29 06:15:43;;;;;;;33.92;18.17;;;;;;;3.61;48.98;98434.34;3363607;29;20060;-77
2022/01/29 06:17:24;;;;;;;34.95;18.02;;;;;;;3.63;49.00;98435.00;3363997;29;20556;-78
2022/01/29 06:19:05;;;;;;;35.17;19.08;;;;;;;3.63;49.07;98432.38;3363616;29;20052;-78
2022/01/29 06:20:57;;;;;;;37.47;19.60;;;;;;;3.60;48.91;98433.53;3363702;29;20898;-78
2022/01/29 06:22:41;;;;;;;36.20;19.13;;;;;;;3.63;48.90;98437.63;3363946;29;20045;-78
2022/01/29 06:24:22;;;;;;;31.65;19.17;;;;;;;3.63;49.06;98442.91;3363160;29;20120;-80
2022/01/29 06:26:07;;;;;;;35.45;19.60;;;;;;;3.58;49.02;98429.47;3363897;29;20097;-78
2022/01/29 06:27:48;;;;;;;38.13;19.90;;;;;;;3.64;48.92;98436.63;3364016;29;20113;-75
2022/01/29 06:29:29;;;;;;;33.40;18.40;;;;;;;3.62;48.82;98443.91;3366566;29;20526;-76
2022/01/29 06:31:09;;;;;;;31.80;16.98;;;;;;;3.62;48.94;98441.28;3366587;29;20521;-77
2022/01/29 06:32:50;;;;;;;39.60;20.05;;;;;;;3.60;48.94;98440.63;3366260;29;20468;-76
2022/01/29 06:34:31;;;;;;;38.03;20.38;;;;;;;3.57;48.86;98446.28;3364799;29;20041;-79
2022/01/29 06:36:13;;;;;;;39.25;18.20;;;;;;;3.59;48.94;98449.53;3352890;29;20053;-82
2022/01/29 06:37:54;;;;;;;34.28;18.42;;;;;;;3.60;48.91;98440.63;3362049;29;20069;-82
2022/01/29 06:39:34;;;;;;;42.05;20.65;;;;;;;3.63;48.89;98448.16;3364079;29;20045;-83
2022/01/29 06:41:15;;;;;;;35.33;19.33;;;;;;;3.62;48.97;98438.66;3362982;29;20052;-81
2022/01/29 06:42:56;;;;;;;36.08;19.50;;;;;;;3.63;49.00;98446.34;3363761;29;20080;-78
2022/01/29 06:44:36;;;;;;;35.70;19.98;;;;;;;3.63;48.92;98446.34;3362829;29;20040;-79
2022/01/29 06:46:17;;;;;;;43.40;19.85;;;;;;;3.65;49.09;98448.81;3363375;29;20037;-77
2022/01/29 06:47:58;;;;;;;34.50;19.42;;;;;;;3.66;49.06;98450.44;3363118;29;20055;-76
2022/01/29 06:49:39;;;;;;;41.25;19.85;;;;;;;3.72;49.27;98460.28;3363160;29;20473;-79
2022/01/29 06:51:19;;;;;;;36.80;19.98;;;;;;;3.74;49.08;98454.81;3363422;29;20056;-80
2022/01/29 06:53:00;;;;;;;37.60;18.75;;;;;;;3.73;49.12;98451.38;3362615;29;20131;-77
2022/01/29 06:54:41;;;;;;;41.70;21.77;;;;;;;3.75;49.13;98459.91;3362711;29;20412;-75
2022/01/29 06:56:22;;;;;;;41.33;20.20;;;;;;;3.76;49.33;98453.63;3362816;29;20045;-74
2022/01/29 06:58:03;;;;;;;39.97;20.10;;;;;;;3.78;49.19;98453.47;3361726;29;20045;-76
2022/01/29 06:59:43;;;;;;;38.00;19.63;;;;;;;3.80;49.31;98456.72;3364655;29;20074;-74
2022/01/29 07:01:24;;;;;;;40.33;20.35;;;;;;;3.81;49.27;98467.06;3365532;29;20524;-76
2022/01/29 07:03:05;;;;;;;41.47;19.50;;;;;;;3.80;49.20;98465.44;3364535;29;20056;-76
2022/01/29 07:04:46;;;;;;;37.47;19.70;;;;;;;3.82;49.26;98465.25;3363667;29;20109;-73
2022/01/29 07:06:26;;;;;;;40.25;19.08;;;;;;;3.80;49.31;98462.00;3364016;29;20132;-73
2022/01/29 07:08:07;;;;;;;36.70;21.13;;;;;;;3.83;49.29;98462.44;3364616;29;20059;-75
2022/01/29 07:09:48;;;;;;;37.70;20.40;;;;;;;3.84;49.14;98463.25;3365271;29;20055;-75
2022/01/29 07:11:29;;;;;;;41.17;21.35;;;;;;;3.83;49.22;98462.44;3365172;29;20045;-75
2022/01/29 07:13:10;;;;;;;38.78;23.02;;;;;;;3.84;49.19;98464.06;3363939;29;20044;-74
2022/01/29 07:14:51;;;;;;;44.70;22.55;;;;;;;3.87;49.07;98461.09;3362978;29;20621;-75
2022/01/29 07:16:34;;;;;;;39.05;22.25;;;;;;;3.87;49.32;98466.38;3362682;29;20444;-73
2022/01/29 07:18:15;;;;;;;41.17;20.83;;;;;;;3.88;49.22;98472.44;3362771;29;20056;-75
2022/01/29 07:19:56;;;;;;;38.67;18.88;;;;;;;3.90;49.21;98473.09;3362615;29;20501;-75
2022/01/29 07:21:37;;;;;;;39.53;20.75;;;;;;;3.90;49.24;98476.53;3362598;29;20133;-74
2022/01/29 07:23:18;;;;;;;42.42;21.25;;;;;;;3.92;49.16;98469.28;3362558;29;20053;-75
2022/01/29 07:24:59;;;;;;;35.70;20.77;;;;;;;3.94;49.28;98477.00;3362056;29;20437;-80
2022/01/29 07:26:39;;;;;;;37.65;20.45;;;;;;;3.97;49.35;98478.44;3363253;29;20389;-80
2022/01/29 07:28:21;;;;;;;40.38;19.98;;;;;;;3.99;49.46;98479.91;3363064;29;20076;-77
2022/01/29 07:30:03;;;;;;;40.85;21.60;;;;;;;4.02;49.27;98478.72;3362433;29;20493;-79
2022/01/29 07:31:44;;;;;;;40.17;20.83;;;;;;;4.05;49.45;98475.72;3362678;29;20072;-76
2022/01/29 07:33:24;;;;;;;42.28;18.58;;;;;;;4.03;49.69;98469.81;3362276;29;20060;-75
2022/01/29 07:35:05;;;;;;;37.40;21.05;;;;;;;4.05;49.40;98467.78;3362402;29;20041;-82
2022/01/29 07:36:46;;;;;;;41.03;21.33;;;;;;;4.04;49.27;98468.81;3363220;29;20052;-74
2022/01/29 07:38:26;;;;;;;37.92;21.10;;;;;;;4.04;49.22;98463.53;3362997;29;20096;-78
2022/01/29 07:40:08;;;;;;;38.65;20.73;;;;;;;4.05;49.55;98465.16;3362072;29;20078;-80
2022/01/29 07:41:49;;;;;;;39.13;19.98;;;;;;;4.11;49.58;98465.25;3362732;29;20497;-77
2022/01/29 07:43:29;;;;;;;37.10;19.88;;;;;;;4.13;49.71;98457.16;3362477;29;20097;-80
2022/01/29 07:45:10;;;;;;;36.15;19.55;;;;;;;4.17;49.88;98461.06;3361781;29;20056;-74
2022/01/29 07:46:51;;;;;;;43.60;21.85;;;;;;;4.19;49.80;98456.44;3359176;29;20048;-81
2022/01/29 07:48:31;;;;;;;42.45;21.30;;;;;;;4.22;49.64;98461.34;3363441;29;20065;-81
2022/01/29 07:50:12;;;;;;;38.55;20.88;;;;;;;4.27;49.81;98463.44;3366357;29;20101;-81
2022/01/29 07:51:53;;;;;;;35.45;20.92;;;;;;;4.29;49.67;98470.16;3365294;29;20045;-80
2022/01/29 07:53:34;;;;;;;34.50;20.17;;;;;;;4.30;49.61;98463.88;3363748;29;20192;-81
2022/01/29 07:55:14;;;;;;;45.10;22.67;;;;;;;4.32;49.58;98466.31;3363412;29;20052;-81
2022/01/29 07:56:55;;;;;;;42.60;20.25;;;;;;;4.35;49.74;98464.13;3363224;29;20505;-82
2022/01/29 07:58:36;;;;;;;39.03;20.70;;;;;;;4.37;49.70;98466.59;3362868;29;20128;-81
2022/01/29 08:00:17;;;;;;;41.47;22.98;;;;;;;4.40;49.63;98475.97;3363580;29;20520;-78
2022/01/29 08:01:57;;;;;;;41.30;21.40;;;;;;;4.42;49.72;98472.13;3365628;29;20045;-79
2022/01/29 08:03:38;;;;;;;47.28;22.90;;;;;;;4.50;49.84;98473.84;3367343;29;20079;-80
2022/01/29 08:05:19;;;;;;;42.30;21.58;;;;;;;4.53;49.70;98473.47;3364935;29;20105;-79
2022/01/29 08:06:59;;;;;;;32.83;18.88;;;;;;;4.57;49.75;98480.84;3363190;29;20156;-81